sensor_id;sensor_type;location;lat;lon;timestamp;pressure;altitude;pressure_sealevel;temperature;humidity
48053;BME280;33824;51.600;5.718;2023-02-13T00:01:16;103553.91;;;8.61;87.29
48053;BME280;33824;51.600;5.718;2023-02-13T00:03:41;103552.84;;;8.64;87.16
48053;BME280;33824;51.600;5.718;2023-02-13T00:06:07;103552.78;;;8.65;87.13
48053;BME280;33824;51.600;5.718;2023-02-13T00:08:33;103537.47;;;8.69;87.32
48053;BME280;33824;51.600;5.718;2023-02-13T00:10:59;103540.78;;;8.73;87.37
48053;BME280;33824;51.600;5.718;2023-02-13T00:13:24;103541.38;;;8.78;86.89
48053;BME280;33824;51.600;5.718;2023-02-13T00:16:01;103538.13;;;8.73;86.94
48053;BME280;33824;51.600;5.718;2023-02-13T00:18:28;103542.75;;;8.83;86.98
48053;BME280;33824;51.600;5.718;2023-02-13T00:20:59;103544.69;;;8.81;86.49
48053;BME280;33824;51.600;5.718;2023-02-13T00:23:25;103535.56;;;8.85;86.95
48053;BME280;33824;51.600;5.718;2023-02-13T00:25:51;103533.75;;;8.86;87.01
48053;BME280;33824;51.600;5.718;2023-02-13T00:28:16;103529.47;;;8.83;86.49
48053;BME280;33824;51.600;5.718;2023-02-13T00:30:42;103532.91;;;8.85;86.78
48053;BME280;33824;51.600;5.718;2023-02-13T00:33:07;103537.34;;;8.85;86.67
48053;BME280;33824;51.600;5.718;2023-02-13T00:35:33;103537.28;;;8.86;86.71
48053;BME280;33824;51.600;5.718;2023-02-13T00:37:58;103537.34;;;8.85;86.88
48053;BME280;33824;51.600;5.718;2023-02-13T00:40:24;103535.75;;;8.82;86.70
48053;BME280;33824;51.600;5.718;2023-02-13T00:42:49;103536.41;;;8.86;86.79
48053;BME280;33824;51.600;5.718;2023-02-13T00:45:15;103536.28;;;8.87;86.60
48053;BME280;33824;51.600;5.718;2023-02-13T00:47:40;103530.03;;;8.88;86.80
48053;BME280;33824;51.600;5.718;2023-02-13T00:50:06;103529.19;;;8.88;86.74
48053;BME280;33824;51.600;5.718;2023-02-13T00:52:32;103528.44;;;8.86;86.75
48053;BME280;33824;51.600;5.718;2023-02-13T00:54:57;103533.63;;;8.87;86.79
48053;BME280;33824;51.600;5.718;2023-02-13T00:57:23;103529.09;;;8.89;86.60
48053;BME280;33824;51.600;5.718;2023-02-13T00:59:48;103534.22;;;8.92;86.83
48053;BME280;33824;51.600;5.718;2023-02-13T01:02:14;103537.06;;;8.89;86.71
48053;BME280;33824;51.600;5.718;2023-02-13T01:04:39;103531.94;;;8.86;86.60
48053;BME280;33824;51.600;5.718;2023-02-13T01:07:05;103530.13;;;8.87;86.85
48053;BME280;33824;51.600;5.718;2023-02-13T01:09:30;103532.13;;;8.83;86.41
48053;BME280;33824;51.600;5.718;2023-02-13T01:11:56;103539.94;;;8.86;86.87
48053;BME280;33824;51.600;5.718;2023-02-13T01:14:21;103535.44;;;8.87;86.48
48053;BME280;33824;51.600;5.718;2023-02-13T01:16:47;103540.88;;;8.85;86.74
48053;BME280;33824;51.600;5.718;2023-02-13T01:19:13;103533.84;;;8.84;86.48
48053;BME280;33824;51.600;5.718;2023-02-13T01:21:38;103541.63;;;8.87;86.90
48053;BME280;33824;51.600;5.718;2023-02-13T01:24:04;103538.88;;;8.89;86.67
48053;BME280;33824;51.600;5.718;2023-02-13T01:26:30;103541.53;;;8.89;86.76
48053;BME280;33824;51.600;5.718;2023-02-13T01:28:55;103540.69;;;8.88;86.63
48053;BME280;33824;51.600;5.718;2023-02-13T01:31:22;103533.84;;;8.84;86.69
48053;BME280;33824;51.600;5.718;2023-02-13T01:33:48;103542.03;;;8.81;86.70
48053;BME280;33824;51.600;5.718;2023-02-13T01:36:14;103535.25;;;8.76;87.01
48053;BME280;33824;51.600;5.718;2023-02-13T01:38:40;103536.41;;;8.72;86.91
48053;BME280;33824;51.600;5.718;2023-02-13T01:41:07;103531.94;;;8.72;87.09
48053;BME280;33824;51.600;5.718;2023-02-13T01:44:02;103539.88;;;8.59;87.39
48053;BME280;33824;51.600;5.718;2023-02-13T01:46:35;103531.22;;;8.70;87.39
48053;BME280;33824;51.600;5.718;2023-02-13T01:49:09;103527.69;;;8.70;87.13
48053;BME280;33824;51.600;5.718;2023-02-13T01:51:37;103531.09;;;8.72;87.15
48053;BME280;33824;51.600;5.718;2023-02-13T01:54:07;103528.75;;;8.67;87.26
48053;BME280;33824;51.600;5.718;2023-02-13T01:56:49;103522.84;;;8.62;87.58
48053;BME280;33824;51.600;5.718;2023-02-13T01:59:21;103527.31;;;8.61;87.50
48053;BME280;33824;51.600;5.718;2023-02-13T02:01:47;103520.19;;;8.62;87.42
48053;BME280;33824;51.600;5.718;2023-02-13T02:04:20;103514.41;;;8.55;87.77
48053;BME280;33824;51.600;5.718;2023-02-13T02:06:57;103513.44;;;8.42;87.52
48053;BME280;33824;51.600;5.718;2023-02-13T02:09:29;103518.50;;;8.47;87.92
48053;BME280;33824;51.600;5.718;2023-02-13T02:12:23;103514.59;;;8.38;87.85
48053;BME280;33824;51.600;5.718;2023-02-13T02:14:52;103514.88;;;8.48;88.00
48053;BME280;33824;51.600;5.718;2023-02-13T02:17:20;103501.59;;;8.48;88.04
48053;BME280;33824;51.600;5.718;2023-02-13T02:34:31;103502.88;;;8.27;88.25
48053;BME280;33824;51.600;5.718;2023-02-13T02:39:50;103507.44;;;8.25;88.23
48053;BME280;33824;51.600;5.718;2023-02-13T02:45:04;103503.53;;;8.16;88.20
48053;BME280;33824;51.600;5.718;2023-02-13T02:47:43;103510.84;;;8.12;88.10
48053;BME280;33824;51.600;5.718;2023-02-13T02:50:43;103508.00;;;8.01;88.35
48053;BME280;33824;51.600;5.718;2023-02-13T02:53:22;103498.22;;;8.02;88.50
48053;BME280;33824;51.600;5.718;2023-02-13T02:56:10;103494.78;;;7.86;88.40
48053;BME280;33824;51.600;5.718;2023-02-13T02:59:03;103496.09;;;7.79;88.39
48053;BME280;33824;51.600;5.718;2023-02-13T03:01:49;103497.97;;;7.77;88.83
48053;BME280;33824;51.600;5.718;2023-02-13T03:04:40;103506.38;;;7.69;89.20
48053;BME280;33824;51.600;5.718;2023-02-13T03:07:25;103510.16;;;7.65;88.95
48053;BME280;33824;51.600;5.718;2023-02-13T03:09:55;103504.19;;;7.61;89.36
48053;BME280;33824;51.600;5.718;2023-02-13T03:12:46;103500.63;;;7.47;88.90
48053;BME280;33824;51.600;5.718;2023-02-13T03:15:43;103506.19;;;7.42;89.48
48053;BME280;33824;51.600;5.718;2023-02-13T03:18:31;103497.84;;;7.34;88.85
48053;BME280;33824;51.600;5.718;2023-02-13T03:27:39;103500.44;;;7.04;89.81
48053;BME280;33824;51.600;5.718;2023-02-13T03:30:38;103493.34;;;7.05;90.18
48053;BME280;33824;51.600;5.718;2023-02-13T03:33:30;103493.19;;;6.92;90.21
48053;BME280;33824;51.600;5.718;2023-02-13T03:44:39;103496.75;;;6.60;90.64
48053;BME280;33824;51.600;5.718;2023-02-13T03:47:08;103499.06;;;6.66;91.07
48053;BME280;33824;51.600;5.718;2023-02-13T03:49:39;103501.19;;;6.59;90.72
48053;BME280;33824;51.600;5.718;2023-02-13T03:52:28;103512.16;;;6.53;90.75
48053;BME280;33824;51.600;5.718;2023-02-13T03:55:04;103507.94;;;6.49;91.22
48053;BME280;33824;51.600;5.718;2023-02-13T03:57:52;103506.16;;;6.50;91.52
48053;BME280;33824;51.600;5.718;2023-02-13T04:00:44;103501.09;;;6.45;91.58
48053;BME280;33824;51.600;5.718;2023-02-13T04:06:13;103504.25;;;6.36;91.74
48053;BME280;33824;51.600;5.718;2023-02-13T04:08:40;103508.81;;;6.17;91.65
48053;BME280;33824;51.600;5.718;2023-02-13T04:11:13;103504.06;;;6.23;91.03
48053;BME280;33824;51.600;5.718;2023-02-13T04:13:46;103501.41;;;6.23;91.29
48053;BME280;33824;51.600;5.718;2023-02-13T04:16:28;103513.84;;;6.21;91.22
48053;BME280;33824;51.600;5.718;2023-02-13T04:18:56;103514.66;;;6.23;91.67
48053;BME280;33824;51.600;5.718;2023-02-13T04:21:23;103512.06;;;6.22;91.86
48053;BME280;33824;51.600;5.718;2023-02-13T04:23:48;103514.88;;;6.19;91.81
48053;BME280;33824;51.600;5.718;2023-02-13T04:26:20;103509.91;;;6.13;91.62
48053;BME280;33824;51.600;5.718;2023-02-13T04:28:47;103513.41;;;6.13;91.47
48053;BME280;33824;51.600;5.718;2023-02-13T04:31:12;103507.25;;;6.13;91.84
48053;BME280;33824;51.600;5.718;2023-02-13T04:33:38;103513.56;;;6.10;91.64
48053;BME280;33824;51.600;5.718;2023-02-13T04:36:26;103521.69;;;6.07;91.39
48053;BME280;33824;51.600;5.718;2023-02-13T04:38:51;103514.59;;;6.08;92.09
48053;BME280;33824;51.600;5.718;2023-02-13T04:41:17;103508.22;;;6.12;91.93
48053;BME280;33824;51.600;5.718;2023-02-13T04:43:43;103509.06;;;6.12;91.94
48053;BME280;33824;51.600;5.718;2023-02-13T04:46:09;103506.56;;;6.09;92.12
48053;BME280;33824;51.600;5.718;2023-02-13T04:48:34;103508.44;;;6.07;91.78
48053;BME280;33824;51.600;5.718;2023-02-13T04:51:00;103505.97;;;6.04;91.80
48053;BME280;33824;51.600;5.718;2023-02-13T04:53:25;103507.06;;;6.00;91.78
48053;BME280;33824;51.600;5.718;2023-02-13T04:55:51;103495.06;;;5.93;91.85
48053;BME280;33824;51.600;5.718;2023-02-13T04:58:16;103494.97;;;5.95;91.91
48053;BME280;33824;51.600;5.718;2023-02-13T05:00:42;103490.59;;;5.94;92.15
48053;BME280;33824;51.600;5.718;2023-02-13T05:03:12;103496.28;;;5.86;91.91
48053;BME280;33824;51.600;5.718;2023-02-13T05:05:38;103484.03;;;5.84;91.78
48053;BME280;33824;51.600;5.718;2023-02-13T05:08:05;103481.50;;;5.82;92.33
48053;BME280;33824;51.600;5.718;2023-02-13T05:10:31;103484.22;;;5.80;92.02
48053;BME280;33824;51.600;5.718;2023-02-13T05:12:57;103484.97;;;5.82;92.36
48053;BME280;33824;51.600;5.718;2023-02-13T05:15:23;103483.28;;;5.82;92.40
48053;BME280;33824;51.600;5.718;2023-02-13T05:17:49;103494.00;;;5.78;92.56
48053;BME280;33824;51.600;5.718;2023-02-13T05:20:15;103495.81;;;5.78;92.46
48053;BME280;33824;51.600;5.718;2023-02-13T05:22:45;103497.84;;;5.73;92.42
48053;BME280;33824;51.600;5.718;2023-02-13T05:25:29;103496.22;;;5.70;92.76
48053;BME280;33824;51.600;5.718;2023-02-13T05:27:55;103488.56;;;5.64;92.66
48053;BME280;33824;51.600;5.718;2023-02-13T05:30:24;103493.22;;;5.59;92.33
48053;BME280;33824;51.600;5.718;2023-02-13T05:32:49;103489.75;;;5.59;92.65
48053;BME280;33824;51.600;5.718;2023-02-13T05:35:17;103489.81;;;5.57;92.79
48053;BME280;33824;51.600;5.718;2023-02-13T05:37:46;103491.53;;;5.58;92.79
48053;BME280;33824;51.600;5.718;2023-02-13T05:40:12;103482.91;;;5.55;92.53
48053;BME280;33824;51.600;5.718;2023-02-13T05:42:39;103480.38;;;5.52;92.96
48053;BME280;33824;51.600;5.718;2023-02-13T05:45:05;103484.16;;;5.48;93.34
48053;BME280;33824;51.600;5.718;2023-02-13T05:47:31;103475.34;;;5.47;93.12
48053;BME280;33824;51.600;5.718;2023-02-13T05:49:56;103479.84;;;5.45;93.12
48053;BME280;33824;51.600;5.718;2023-02-13T05:52:22;103478.13;;;5.44;93.36
48053;BME280;33824;51.600;5.718;2023-02-13T05:54:48;103480.78;;;5.44;93.51
48053;BME280;33824;51.600;5.718;2023-02-13T05:57:13;103483.41;;;5.44;93.16
48053;BME280;33824;51.600;5.718;2023-02-13T05:59:39;103486.00;;;5.46;93.28
48053;BME280;33824;51.600;5.718;2023-02-13T06:02:04;103480.88;;;5.43;93.67
48053;BME280;33824;51.600;5.718;2023-02-13T06:04:30;103487.94;;;5.42;93.25
48053;BME280;33824;51.600;5.718;2023-02-13T06:06:55;103488.09;;;5.39;93.30
48053;BME280;33824;51.600;5.718;2023-02-13T06:09:21;103491.69;;;5.38;93.31
48053;BME280;33824;51.600;5.718;2023-02-13T06:11:47;103479.25;;;5.40;93.91
48053;BME280;33824;51.600;5.718;2023-02-13T06:14:13;103488.09;;;5.39;93.72
48053;BME280;33824;51.600;5.718;2023-02-13T06:16:39;103482.72;;;5.41;93.69
48053;BME280;33824;51.600;5.718;2023-02-13T06:19:05;103477.44;;;5.41;93.61
48053;BME280;33824;51.600;5.718;2023-02-13T06:21:31;103480.22;;;5.38;93.06
48053;BME280;33824;51.600;5.718;2023-02-13T06:23:57;103481.16;;;5.37;93.50
48053;BME280;33824;51.600;5.718;2023-02-13T06:26:23;103483.91;;;5.35;93.21
48053;BME280;33824;51.600;5.718;2023-02-13T06:28:49;103481.25;;;5.35;93.27
48053;BME280;33824;51.600;5.718;2023-02-13T06:31:15;103483.03;;;5.35;93.55
48053;BME280;33824;51.600;5.718;2023-02-13T06:33:40;103484.91;;;5.32;93.67
48053;BME280;33824;51.600;5.718;2023-02-13T06:36:07;103486.06;;;5.27;92.87
48053;BME280;33824;51.600;5.718;2023-02-13T06:38:33;103491.66;;;5.21;92.72
48053;BME280;33824;51.600;5.718;2023-02-13T06:41:00;103493.81;;;5.13;92.77
48053;BME280;33824;51.600;5.718;2023-02-13T06:43:26;103498.53;;;5.06;92.77
48053;BME280;33824;51.600;5.718;2023-02-13T06:45:52;103490.13;;;4.98;93.17
48053;BME280;33824;51.600;5.718;2023-02-13T06:48:18;103487.13;;;4.87;92.62
48053;BME280;33824;51.600;5.718;2023-02-13T06:50:44;103492.06;;;4.76;92.89
48053;BME280;33824;51.600;5.718;2023-02-13T06:53:10;103493.28;;;4.69;93.14
48053;BME280;33824;51.600;5.718;2023-02-13T06:55:36;103497.13;;;4.62;92.91
48053;BME280;33824;51.600;5.718;2023-02-13T06:58:04;103492.00;;;4.59;93.11
48053;BME280;33824;51.600;5.718;2023-02-13T07:00:30;103499.06;;;4.58;93.49
48053;BME280;33824;51.600;5.718;2023-02-13T07:03:01;103498.16;;;4.59;93.91
48053;BME280;33824;51.600;5.718;2023-02-13T07:05:27;103497.84;;;4.65;94.38
48053;BME280;33824;51.600;5.718;2023-02-13T07:07:52;103501.28;;;4.67;94.34
48053;BME280;33824;51.600;5.718;2023-02-13T07:10:18;103500.34;;;4.68;94.21
48053;BME280;33824;51.600;5.718;2023-02-13T07:12:44;103506.50;;;4.69;93.82
48053;BME280;33824;51.600;5.718;2023-02-13T07:15:10;103506.34;;;4.72;94.25
48053;BME280;33824;51.600;5.718;2023-02-13T07:17:36;103516.00;;;4.73;93.66
48053;BME280;33824;51.600;5.718;2023-02-13T07:20:03;103515.06;;;4.74;93.98
48053;BME280;33824;51.600;5.718;2023-02-13T07:22:30;103520.22;;;4.77;94.03
48053;BME280;33824;51.600;5.718;2023-02-13T07:24:57;103527.88;;;4.83;94.13
48053;BME280;33824;51.600;5.718;2023-02-13T07:27:23;103525.94;;;4.87;93.77
48053;BME280;33824;51.600;5.718;2023-02-13T07:29:49;103531.06;;;4.90;93.90
48053;BME280;33824;51.600;5.718;2023-02-13T07:32:14;103528.34;;;4.91;93.47
48053;BME280;33824;51.600;5.718;2023-02-13T07:34:40;103533.88;;;4.87;93.57
48053;BME280;33824;51.600;5.718;2023-02-13T07:37:08;103525.59;;;4.75;93.29
48053;BME280;33824;51.600;5.718;2023-02-13T07:39:35;103525.00;;;4.69;93.05
48053;BME280;33824;51.600;5.718;2023-02-13T07:42:04;103534.06;;;4.63;93.01
48053;BME280;33824;51.600;5.718;2023-02-13T07:44:30;103536.25;;;4.54;92.95
48053;BME280;33824;51.600;5.718;2023-02-13T07:46:56;103530.06;;;4.55;93.28
48053;BME280;33824;51.600;5.718;2023-02-13T07:49:24;103532.56;;;4.58;93.64
48053;BME280;33824;51.600;5.718;2023-02-13T07:51:49;103537.94;;;4.56;93.21
48053;BME280;33824;51.600;5.718;2023-02-13T07:54:15;103530.06;;;4.55;93.26
48053;BME280;33824;51.600;5.718;2023-02-13T07:56:41;103532.66;;;4.56;93.37
48053;BME280;33824;51.600;5.718;2023-02-13T07:59:06;103534.84;;;4.65;93.76
48053;BME280;33824;51.600;5.718;2023-02-13T08:01:32;103529.31;;;4.71;94.00
48053;BME280;33824;51.600;5.718;2023-02-13T08:03:58;103536.94;;;4.77;93.72
48053;BME280;33824;51.600;5.718;2023-02-13T08:06:23;103533.06;;;4.84;94.25
48053;BME280;33824;51.600;5.718;2023-02-13T08:08:49;103534.06;;;5.01;94.69
48053;BME280;33824;51.600;5.718;2023-02-13T08:11:34;103532.16;;;5.21;94.93
48053;BME280;33824;51.600;5.718;2023-02-13T08:14:24;103535.09;;;5.34;94.90
48053;BME280;33824;51.600;5.718;2023-02-13T08:16:50;103534.13;;;5.54;95.38
48053;BME280;33824;51.600;5.718;2023-02-13T08:19:16;103540.19;;;5.73;96.03
48053;BME280;33824;51.600;5.718;2023-02-13T08:21:41;103545.44;;;5.92;95.66
48053;BME280;33824;51.600;5.718;2023-02-13T08:24:07;103545.59;;;6.06;96.11
48053;BME280;33824;51.600;5.718;2023-02-13T08:26:33;103536.16;;;6.17;95.83
48053;BME280;33824;51.600;5.718;2023-02-13T08:28:59;103541.75;;;6.28;95.36
48053;BME280;33824;51.600;5.718;2023-02-13T08:31:25;103539.53;;;6.37;95.37
48053;BME280;33824;51.600;5.718;2023-02-13T08:33:50;103544.97;;;6.51;95.44
48053;BME280;33824;51.600;5.718;2023-02-13T08:36:16;103550.47;;;6.63;95.67
48053;BME280;33824;51.600;5.718;2023-02-13T08:38:45;103552.28;;;6.79;95.80
48053;BME280;33824;51.600;5.718;2023-02-13T08:41:12;103556.75;;;6.94;95.63
48053;BME280;33824;51.600;5.718;2023-02-13T08:43:38;103561.22;;;7.09;95.59
48053;BME280;33824;51.600;5.718;2023-02-13T08:46:03;103565.91;;;7.19;95.42
48053;BME280;33824;51.600;5.718;2023-02-13T08:48:29;103565.22;;;7.32;95.92
48053;BME280;33824;51.600;5.718;2023-02-13T08:50:55;103562.72;;;7.44;95.51
48053;BME280;33824;51.600;5.718;2023-02-13T08:53:21;103560.13;;;7.58;95.65
48053;BME280;33824;51.600;5.718;2023-02-13T08:55:56;103566.72;;;7.67;95.60
48053;BME280;33824;51.600;5.718;2023-02-13T08:58:22;103559.88;;;7.93;95.79
48053;BME280;33824;51.600;5.718;2023-02-13T09:00:48;103559.81;;;8.08;96.17
48053;BME280;33824;51.600;5.718;2023-02-13T09:03:14;103553.56;;;8.24;95.61
48053;BME280;33824;51.600;5.718;2023-02-13T09:05:40;103558.06;;;8.37;95.55
48053;BME280;33824;51.600;5.718;2023-02-13T09:08:06;103551.06;;;8.50;95.50
48053;BME280;33824;51.600;5.718;2023-02-13T09:10:33;103554.47;;;8.66;95.45
48053;BME280;33824;51.600;5.718;2023-02-13T09:12:58;103553.81;;;8.77;95.31
48053;BME280;33824;51.600;5.718;2023-02-13T09:15:25;103551.59;;;8.84;94.88
48053;BME280;33824;51.600;5.718;2023-02-13T09:17:51;103551.22;;;8.90;95.03
48053;BME280;33824;51.600;5.718;2023-02-13T09:20:17;103553.28;;;8.99;94.82
48053;BME280;33824;51.600;5.718;2023-02-13T09:22:43;103554.50;;;9.07;94.98
48053;BME280;33824;51.600;5.718;2023-02-13T09:25:09;103557.75;;;9.12;94.48
48053;BME280;33824;51.600;5.718;2023-02-13T09:27:35;103557.69;;;9.27;94.80
48053;BME280;33824;51.600;5.718;2023-02-13T09:30:06;103554.25;;;9.39;94.51
48053;BME280;33824;51.600;5.718;2023-02-13T09:32:32;103552.59;;;9.50;94.45
48053;BME280;33824;51.600;5.718;2023-02-13T09:34:58;103551.88;;;9.61;94.23
48053;BME280;33824;51.600;5.718;2023-02-13T09:37:25;103556.03;;;9.65;93.67
48053;BME280;33824;51.600;5.718;2023-02-13T09:39:51;103556.38;;;9.73;93.61
48053;BME280;33824;51.600;5.718;2023-02-13T09:42:23;103559.56;;;9.78;93.24
48053;BME280;33824;51.600;5.718;2023-02-13T09:44:53;103546.38;;;9.89;92.61
48053;BME280;33824;51.600;5.718;2023-02-13T09:47:30;103552.69;;;9.88;92.57
48053;BME280;33824;51.600;5.718;2023-02-13T09:50:00;103555.34;;;10.01;92.36
48053;BME280;33824;51.600;5.718;2023-02-13T09:52:32;103554.72;;;10.10;91.96
48053;BME280;33824;51.600;5.718;2023-02-13T09:54:57;103554.66;;;10.24;91.65
48053;BME280;33824;51.600;5.718;2023-02-13T09:57:34;103551.59;;;10.30;91.18
48053;BME280;33824;51.600;5.718;2023-02-13T10:00:43;103554.03;;;10.46;90.65
48053;BME280;33824;51.600;5.718;2023-02-13T10:08:19;103549.88;;;10.42;88.58
48053;BME280;33824;51.600;5.718;2023-02-13T10:13:48;103546.94;;;10.70;88.66
48053;BME280;33824;51.600;5.718;2023-02-13T10:16:17;103543.72;;;10.78;87.87
48053;BME280;33824;51.600;5.718;2023-02-13T10:21:20;103537.25;;;11.05;87.65
48053;BME280;33824;51.600;5.718;2023-02-13T10:23:53;103541.72;;;11.18;87.17
48053;BME280;33824;51.600;5.718;2023-02-13T10:26:22;103541.75;;;11.29;86.58
48053;BME280;33824;51.600;5.718;2023-02-13T10:28:59;103546.78;;;11.33;85.68
48053;BME280;33824;51.600;5.718;2023-02-13T10:31:47;103549.84;;;11.40;85.23
48053;BME280;33824;51.600;5.718;2023-02-13T10:34:16;103547.13;;;11.52;85.03
48053;BME280;33824;51.600;5.718;2023-02-13T10:36:45;103538.09;;;11.53;84.67
48053;BME280;33824;51.600;5.718;2023-02-13T10:39:26;103541.06;;;11.62;84.67
48053;BME280;33824;51.600;5.718;2023-02-13T10:45:05;103534.59;;;11.77;83.75
48053;BME280;33824;51.600;5.718;2023-02-13T10:47:44;103534.28;;;11.92;83.19
48053;BME280;33824;51.600;5.718;2023-02-13T10:50:21;103533.44;;;12.03;82.74
48053;BME280;33824;51.600;5.718;2023-02-13T11:00:55;103528.97;;;12.37;81.95
48053;BME280;33824;51.600;5.718;2023-02-13T11:03:25;103532.91;;;12.44;81.01
48053;BME280;33824;51.600;5.718;2023-02-13T11:05:52;103529.63;;;12.52;80.69
48053;BME280;33824;51.600;5.718;2023-02-13T11:08:24;103525.00;;;12.54;80.25
48053;BME280;33824;51.600;5.718;2023-02-13T11:10:51;103523.16;;;12.76;80.64
48053;BME280;33824;51.600;5.718;2023-02-13T11:13:19;103518.50;;;12.78;79.89
48053;BME280;33824;51.600;5.718;2023-02-13T11:18:29;103504.75;;;12.83;78.87
48053;BME280;33824;51.600;5.718;2023-02-13T11:21:06;103500.75;;;12.77;78.35
48053;BME280;33824;51.600;5.718;2023-02-13T11:23:37;103503.53;;;12.87;78.58
48053;BME280;33824;51.600;5.718;2023-02-13T11:26:34;103500.50;;;12.80;77.96
48053;BME280;33824;51.600;5.718;2023-02-13T11:29:03;103491.75;;;12.89;77.76
48053;BME280;33824;51.600;5.718;2023-02-13T11:31:37;103484.16;;;12.94;77.62
48053;BME280;33824;51.600;5.718;2023-02-13T11:34:24;103486.94;;;13.04;77.71
48053;BME280;33824;51.600;5.718;2023-02-13T11:36:52;103481.31;;;13.18;77.10
48053;BME280;33824;51.600;5.718;2023-02-13T11:39:20;103476.94;;;13.17;76.40
48053;BME280;33824;51.600;5.718;2023-02-13T11:41:47;103470.22;;;13.23;76.52
48053;BME280;33824;51.600;5.718;2023-02-13T11:44:24;103467.19;;;13.27;76.34
48053;BME280;33824;51.600;5.718;2023-02-13T11:46:53;103473.25;;;13.29;75.79
48053;BME280;33824;51.600;5.718;2023-02-13T11:49:24;103463.00;;;13.34;75.72
48053;BME280;33824;51.600;5.718;2023-02-13T11:51:55;103468.44;;;13.44;75.75
48053;BME280;33824;51.600;5.718;2023-02-13T11:54:32;103470.66;;;13.39;75.09
48053;BME280;33824;51.600;5.718;2023-02-13T11:57:20;103459.63;;;13.53;75.49
48053;BME280;33824;51.600;5.718;2023-02-13T11:59:47;103463.78;;;13.67;75.35
48053;BME280;33824;51.600;5.718;2023-02-13T12:04:45;103455.69;;;13.78;74.72
48053;BME280;33824;51.600;5.718;2023-02-13T12:09:58;103461.63;;;13.81;73.42
48053;BME280;33824;51.600;5.718;2023-02-13T12:12:31;103454.50;;;13.91;73.57
48053;BME280;33824;51.600;5.718;2023-02-13T12:15:01;103449.44;;;13.98;73.00
48053;BME280;33824;51.600;5.718;2023-02-13T12:17:31;103454.19;;;14.15;73.01
48053;BME280;33824;51.600;5.718;2023-02-13T12:19:57;103447.56;;;14.19;71.97
48053;BME280;33824;51.600;5.718;2023-02-13T12:25:12;103446.75;;;14.19;70.47
48053;BME280;33824;51.600;5.718;2023-02-13T12:30:48;103433.75;;;14.24;71.04
48053;BME280;33824;51.600;5.718;2023-02-13T12:39:08;103421.75;;;14.58;70.57
48053;BME280;33824;51.600;5.718;2023-02-13T12:47:28;103415.22;;;14.51;68.42
48053;BME280;33824;51.600;5.718;2023-02-13T12:53:12;103417.50;;;14.56;68.10
48053;BME280;33824;51.600;5.718;2023-02-13T12:56:02;103413.97;;;14.55;67.30
48053;BME280;33824;51.600;5.718;2023-02-13T13:01:48;103410.44;;;14.55;68.83
48053;BME280;33824;51.600;5.718;2023-02-13T13:04:29;103402.25;;;14.66;68.85
48053;BME280;33824;51.600;5.718;2023-02-13T13:10:00;103394.38;;;14.83;68.06
48053;BME280;33824;51.600;5.718;2023-02-13T13:12:44;103401.72;;;14.72;68.35
48053;BME280;33824;51.600;5.718;2023-02-13T13:17:56;103391.97;;;15.00;68.29
48053;BME280;33824;51.600;5.718;2023-02-13T13:23:07;103383.19;;;15.17;66.01
48053;BME280;33824;51.600;5.718;2023-02-13T13:28:26;103384.31;;;15.24;67.26
48053;BME280;33824;51.600;5.718;2023-02-13T13:30:54;103379.09;;;15.32;67.19
48053;BME280;33824;51.600;5.718;2023-02-13T13:33:23;103375.25;;;15.34;66.53
48053;BME280;33824;51.600;5.718;2023-02-13T13:41:40;103370.72;;;15.35;65.77
48053;BME280;33824;51.600;5.718;2023-02-13T13:52:22;103354.28;;;15.67;65.39
48053;BME280;33824;51.600;5.718;2023-02-13T13:54:49;103350.69;;;15.76;65.61
48053;BME280;33824;51.600;5.718;2023-02-13T13:57:20;103348.09;;;15.84;65.50
48053;BME280;33824;51.600;5.718;2023-02-13T14:07:44;103349.09;;;15.83;65.07
48053;BME280;33824;51.600;5.718;2023-02-13T14:13:00;103342.97;;;15.91;64.80
48053;BME280;33824;51.600;5.718;2023-02-13T14:25:50;103339.16;;;15.93;63.72
48053;BME280;33824;51.600;5.718;2023-02-13T14:28:22;103336.19;;;15.87;63.38
48053;BME280;33824;51.600;5.718;2023-02-13T14:30:50;103334.50;;;15.86;63.80
48053;BME280;33824;51.600;5.718;2023-02-13T14:33:27;103329.34;;;15.65;63.47
48053;BME280;33824;51.600;5.718;2023-02-13T14:36:06;103327.13;;;15.51;63.76
48053;BME280;33824;51.600;5.718;2023-02-13T14:38:33;103328.13;;;15.40;64.22
48053;BME280;33824;51.600;5.718;2023-02-13T14:41:00;103337.91;;;15.31;64.89
48053;BME280;33824;51.600;5.718;2023-02-13T14:43:40;103331.41;;;15.15;63.99
48053;BME280;33824;51.600;5.718;2023-02-13T14:46:31;103327.34;;;15.01;64.36
48053;BME280;33824;51.600;5.718;2023-02-13T14:49:45;103337.38;;;14.99;64.58
48053;BME280;33824;51.600;5.718;2023-02-13T14:57:15;103323.84;;;14.72;64.92
48053;BME280;33824;51.600;5.718;2023-02-13T14:59:46;103323.69;;;14.73;65.57
48053;BME280;33824;51.600;5.718;2023-02-13T15:02:32;103317.59;;;14.62;66.32
48053;BME280;33824;51.600;5.718;2023-02-13T15:05:02;103325.09;;;14.68;66.46
48053;BME280;33824;51.600;5.718;2023-02-13T15:07:32;103315.34;;;14.67;66.38
48053;BME280;33824;51.600;5.718;2023-02-13T15:12:37;103320.59;;;14.68;66.74
48053;BME280;33824;51.600;5.718;2023-02-13T15:15:25;103313.22;;;14.61;66.42
48053;BME280;33824;51.600;5.718;2023-02-13T15:18:23;103315.47;;;14.56;66.88
48053;BME280;33824;51.600;5.718;2023-02-13T15:20:52;103311.25;;;14.63;66.97
48053;BME280;33824;51.600;5.718;2023-02-13T15:23:22;103319.44;;;14.71;66.44
48053;BME280;33824;51.600;5.718;2023-02-13T15:25:57;103312.78;;;14.65;65.92
48053;BME280;33824;51.600;5.718;2023-02-13T15:28:24;103315.06;;;14.60;66.35
48053;BME280;33824;51.600;5.718;2023-02-13T15:33:28;103308.41;;;14.45;66.28
48053;BME280;33824;51.600;5.718;2023-02-13T15:35:58;103304.72;;;14.36;66.13
48053;BME280;33824;51.600;5.718;2023-02-13T15:38:30;103300.00;;;14.29;66.74
48053;BME280;33824;51.600;5.718;2023-02-13T15:41:07;103305.63;;;14.16;66.86
48053;BME280;33824;51.600;5.718;2023-02-13T15:43:37;103299.56;;;14.14;67.45